Time;durP1;ratioP1;P1;durP2;ratioP2;P2;SDS_P1;SDS_P2;PMS_P1;PMS_P2;Temp;Humidity;BMP_temperature;BMP_pressure;BME280_temperature;BME280_humidity;BME280_pressure;Samples;Min_cycle;Max_cycle;Signal;HPM_P1;HPM_P2
2022/05/04 00:00:08;;;;;;;15.77;2.85;;;11.40;58.80;;;;;;9182858;19;20341;-70
2022/05/04 00:03:24;;;;;;;10.60;2.88;;;11.40;58.70;;;;;;9181800;19;20487;-71
2022/05/04 00:06:33;;;;;;;;;;;11.40;58.80;;;;;;9186142;19;20116;-71
2022/05/04 00:09:46;;;;;;;16.27;3.08;;;11.40;58.70;;;;;;9180431;19;20025;-71
2022/05/04 00:12:58;;;;;;;11.40;2.67;;;11.40;58.60;;;;;;9184873;19;20025;-71
2022/05/04 00:16:07;;;;;;;11.88;2.22;;;11.40;58.80;;;;;;9184288;19;20011;-70
2022/05/04 00:19:13;;;;;;;9.90;2.85;;;11.30;58.70;;;;;;9182180;19;20033;-71
2022/05/04 00:22:21;;;;;;;14.52;3.20;;;11.30;58.80;;;;;;9181922;19;20025;-71
2022/05/04 00:25:26;;;;;;;15.93;3.05;;;11.20;58.70;;;;;;9182373;19;20014;-70
2022/05/04 00:28:37;;;;;;;23.58;4.05;;;11.30;58.80;;;;;;9182668;19;20045;-70
2022/05/04 00:31:44;;;;;;;14.10;3.10;;;11.30;58.90;;;;;;9182313;19;20041;-74
2022/05/04 00:34:49;;;;;;;15.20;2.72;;;11.30;58.80;;;;;;9181731;19;20018;-70
2022/05/04 00:37:55;;;;;;;7.90;2.78;;;11.30;58.80;;;;;;9183649;19;20014;-70
2022/05/04 00:41:03;;;;;;;12.15;2.72;;;11.30;58.80;;;;;;9179028;19;20037;-72
2022/05/04 00:44:10;;;;;;;12.95;2.88;;;11.30;58.90;;;;;;9182031;19;20052;-70
2022/05/04 00:47:16;;;;;;;10.98;2.83;;;11.30;58.90;;;;;;9181908;19;20346;-69
2022/05/04 00:50:21;;;;;;;16.02;2.67;;;11.30;58.90;;;;;;9182867;19;20352;-71
2022/05/04 00:53:29;;;;;;;17.48;3.55;;;11.30;58.90;;;;;;9181876;19;20038;-71
2022/05/04 00:56:35;;;;;;;11.98;2.95;;;11.30;58.90;;;;;;9174565;19;20359;-70
2022/05/04 00:59:42;;;;;;;16.63;3.05;;;11.20;58.90;;;;;;9180633;19;20022;-70
2022/05/04 01:02:47;;;;;;;12.32;3.08;;;11.30;58.90;;;;;;9177781;19;20011;-71
2022/05/04 01:05:55;;;;;;;15.65;2.78;;;11.20;58.90;;;;;;9182877;19;20025;-69
2022/05/04 01:09:01;;;;;;;15.45;3.00;;;11.20;58.90;;;;;;9179269;19;20007;-70
2022/05/04 01:12:11;;;;;;;11.55;3.40;;;11.20;58.90;;;;;;9181904;19;20019;-71
2022/05/04 01:15:21;;;;;;;12.93;3.15;;;11.10;58.90;;;;;;9181113;19;20025;-70
2022/05/04 01:18:28;;;;;;;15.20;3.55;;;11.20;59.00;;;;;;9179578;19;20022;-70
2022/05/04 01:21:35;;;;;;;13.75;3.53;;;11.10;59.00;;;;;;9178576;19;20019;-71
2022/05/04 01:24:44;;;;;;;14.10;3.17;;;11.10;59.00;;;;;;9180778;19;20025;-70
2022/05/04 01:27:49;;;;;;;18.85;3.90;;;11.10;59.20;;;;;;9180635;19;20017;-71
2022/05/04 01:30:54;;;;;;;11.55;3.25;;;11.10;59.10;;;;;;9181484;19;20010;-70
2022/05/04 01:33:59;;;;;;;21.95;3.85;;;11.10;59.20;;;;;;9179769;19;20097;-70
2022/05/04 01:37:07;;;;;;;19.83;4.18;;;11.10;59.20;;;;;;9181147;19;20010;-69
2022/05/04 01:40:15;;;;;;;14.80;3.65;;;11.10;59.20;;;;;;9179249;19;20015;-69
2022/05/04 01:43:20;;;;;;;14.27;3.83;;;11.10;59.40;;;;;;9180047;19;20012;-71
2022/05/04 01:46:29;;;;;;;15.82;4.20;;;11.10;59.90;;;;;;9179046;19;20018;-69
2022/05/04 01:49:34;;;;;;;17.55;4.43;;;11.10;59.30;;;;;;9178807;19;20073;-71
2022/05/04 01:52:43;;;;;;;11.63;3.85;;;11.10;59.40;;;;;;9176387;19;20022;-71
2022/05/04 01:55:52;;;;;;;9.27;3.28;;;11.10;59.40;;;;;;9175591;19;20471;-70
2022/05/04 01:59:00;;;;;;;14.35;3.33;;;11.10;59.40;;;;;;9179497;19;20020;-70
2022/05/04 02:02:08;;;;;;;19.23;3.92;;;11.00;59.40;;;;;;9176537;19;20018;-71
2022/05/04 02:05:15;;;;;;;14.32;3.15;;;11.10;59.50;;;;;;9178547;19;20117;-70
2022/05/04 02:08:23;;;;;;;12.48;3.65;;;11.10;59.60;;;;;;9178394;19;20018;-71
2022/05/04 02:11:32;;;;;;;10.27;3.90;;;11.10;59.60;;;;;;9178661;19;20007;-72
2022/05/04 02:14:39;;;;;;;14.38;3.97;;;11.00;59.60;;;;;;9180866;19;20017;-70
2022/05/04 02:17:44;;;;;;;16.02;3.35;;;11.00;59.60;;;;;;9178071;19;20018;-70
2022/05/04 02:20:49;;;;;;;11.60;3.17;;;11.00;59.60;;;;;;9177589;19;20376;-69
2022/05/04 02:23:59;;;;;;;10.95;3.25;;;11.00;59.60;;;;;;9179430;19;20014;-72
2022/05/04 02:27:09;;;;;;;12.20;2.85;;;10.90;59.60;;;;;;9178601;19;20760;-70
2022/05/04 02:30:15;;;;;;;14.18;3.08;;;10.90;59.60;;;;;;9180022;19;20018;-69
2022/05/04 02:33:20;;;;;;;10.77;3.45;;;10.90;59.60;;;;;;9179160;19;20484;-70
2022/05/04 02:39:47;;;;;;;14.35;3.60;;;10.90;59.70;;;;;;9176930;19;20006;-71
2022/05/04 02:43:01;;;;;;;11.05;3.53;;;10.80;59.70;;;;;;9187246;19;20018;-70
2022/05/04 02:46:17;;;;;;;12.13;3.28;;;10.80;59.80;;;;;;9186468;19;20729;-71
2022/05/04 02:49:22;;;;;;;13.00;3.28;;;10.80;59.80;;;;;;9183758;19;20026;-71
2022/05/04 02:52:28;;;;;;;14.75;3.00;;;10.80;59.80;;;;;;9188339;19;20464;-70
2022/05/04 02:55:33;;;;;;;18.15;3.90;;;10.80;59.80;;;;;;9181773;19;20019;-70
2022/05/04 02:58:41;;;;;;;20.17;3.42;;;10.70;59.80;;;;;;9186026;19;20017;-70
2022/05/04 03:05:11;;;;;;;12.98;3.30;;;10.70;59.90;;;;;;9185175;19;20018;-70
2022/05/04 03:08:19;;;;;;;28.52;3.28;;;10.70;59.90;;;;;;9184642;19;20018;-70
2022/05/04 03:14:49;;;;;;;15.18;3.22;;;10.60;59.90;;;;;;9186041;19;20010;-70
2022/05/04 03:17:56;;;;;;;15.90;3.13;;;10.60;60.00;;;;;;9184857;19;20014;-72
2022/05/04 03:21:04;;;;;;;13.68;2.78;;;10.60;60.00;;;;;;9184548;19;20027;-70
2022/05/04 03:24:10;;;;;;;14.65;3.30;;;10.50;60.00;;;;;;9187402;19;20507;-70
2022/05/04 03:27:18;;;;;;;15.05;3.22;;;10.50;60.00;;;;;;9185914;19;20368;-71
2022/05/04 03:30:26;;;;;;;15.23;3.05;;;10.50;60.00;;;;;;9184673;19;20018;-70
2022/05/04 03:33:31;;;;;;;15.65;3.35;;;10.50;60.00;;;;;;9185908;19;20034;-70
2022/05/04 03:36:37;;;;;;;16.50;3.58;;;10.40;60.00;;;;;;9186882;19;20014;-70
2022/05/04 03:39:48;;;;;;;13.07;2.92;;;10.40;60.10;;;;;;9186329;19;20006;-70
2022/05/04 03:42:59;;;;;;;10.63;3.13;;;10.40;60.10;;;;;;9181626;19;20018;-70
2022/05/04 03:46:21;;;;;;;19.58;3.25;;;10.40;60.10;;;;;;9181986;19;20015;-70
2022/05/04 03:49:27;;;;;;;15.55;3.45;;;10.30;60.20;;;;;;9184272;19;20026;-69
2022/05/04 03:52:37;;;;;;;12.52;3.28;;;10.30;60.10;;;;;;9186008;19;20022;-69
2022/05/04 03:55:45;;;;;;;19.63;4.63;;;10.30;60.10;;;;;;9180155;19;20006;-69
2022/05/04 03:58:53;;;;;;;14.75;3.60;;;10.30;60.10;;;;;;9184827;19;20014;-71
2022/05/04 04:02:01;;;;;;;13.20;3.67;;;10.30;60.20;;;;;;9181253;19;20019;-71
2022/05/04 04:05:07;;;;;;;12.80;3.40;;;10.30;60.20;;;;;;9185253;19;20023;-70
2022/05/04 04:08:12;;;;;;;15.95;3.28;;;10.20;60.10;;;;;;9184046;19;20025;-70
2022/05/04 04:11:18;;;;;;;19.38;3.60;;;10.20;60.20;;;;;;9185266;19;20013;-70
2022/05/04 04:14:23;;;;;;;15.10;3.50;;;10.20;60.20;;;;;;9183198;19;20025;-70
2022/05/04 04:17:33;;;;;;;14.50;3.17;;;10.10;60.20;;;;;;9182285;19;20078;-70
2022/05/04 04:24:01;;;;;;;15.15;3.72;;;10.10;60.30;;;;;;9184420;19;20015;-70
2022/05/04 04:27:07;;;;;;;13.27;4.00;;;10.10;60.30;;;;;;9183100;19;20427;-71
2022/05/04 04:30:15;;;;;;;10.45;3.15;;;10.00;60.40;;;;;;9182830;19;20017;-72
2022/05/04 04:33:26;;;;;;;11.27;3.03;;;10.00;60.40;;;;;;9185077;19;20032;-71
2022/05/04 04:36:34;;;;;;;18.52;5.38;;;10.00;60.40;;;;;;9184038;19;20048;-72
2022/05/04 04:39:39;;;;;;;12.55;3.22;;;10.00;60.50;;;;;;9182130;19;20019;-71
2022/05/04 04:42:44;;;;;;;12.88;3.10;;;10.00;60.50;;;;;;9179348;19;20577;-72
2022/05/04 04:45:50;;;;;;;17.60;4.55;;;9.90;60.50;;;;;;9183049;19;20006;-69
2022/05/04 04:49:01;;;;;;;17.75;4.25;;;9.90;60.50;;;;;;9183791;19;20526;-71
2022/05/04 04:52:07;;;;;;;15.07;3.42;;;9.90;60.60;;;;;;9181705;19;20031;-71
2022/05/04 04:55:12;;;;;;;10.63;3.90;;;9.90;60.60;;;;;;9178343;19;20047;-71
2022/05/04 04:58:17;;;;;;;16.90;3.53;;;9.90;60.70;;;;;;9181524;19;20018;-73
2022/05/04 05:01:27;;;;;;;15.75;3.25;;;9.90;60.70;;;;;;9182027;19;20015;-72
2022/05/04 05:04:35;;;;;;;17.27;3.38;;;9.80;60.70;;;;;;9181969;19;20330;-71
2022/05/04 05:07:42;;;;;;;16.55;3.75;;;9.80;60.80;;;;;;9182803;19;20480;-71
2022/05/04 05:10:50;;;;;;;16.27;3.28;;;9.80;60.80;;;;;;9181110;19;20014;-70
2022/05/04 05:17:15;;;;;;;12.95;3.33;;;9.80;60.80;;;;;;9180775;19;20018;-71
2022/05/04 05:20:23;;;;;;;8.43;2.88;;;9.80;60.80;;;;;;9181173;19;20746;-73
2022/05/04 05:23:28;;;;;;;14.25;4.03;;;9.80;60.90;;;;;;9179187;19;20014;-72
2022/05/04 05:26:33;;;;;;;13.57;3.90;;;9.80;60.90;;;;;;9180275;19;20511;-74
2022/05/04 05:29:44;;;;;;;11.98;3.70;;;9.80;60.90;;;;;;9180965;19;20033;-72
2022/05/04 05:32:52;;;;;;;12.40;3.00;;;9.80;61.00;;;;;;9182755;19;20483;-71
2022/05/04 05:36:00;;;;;;;12.65;3.53;;;9.80;60.90;;;;;;9180512;19;20011;-72
2022/05/04 05:39:06;;;;;;;17.90;3.30;;;9.80;61.00;;;;;;9177984;19;20093;-73
2022/05/04 05:42:12;;;;;;;13.80;3.72;;;9.80;61.00;;;;;;9179658;19;20753;-72
2022/05/04 05:45:17;;;;;;;21.55;3.92;;;9.80;61.00;;;;;;9179752;19;20484;-72
2022/05/04 05:48:25;;;;;;;13.38;3.55;;;10.00;61.20;;;;;;9179137;19;20729;-71
2022/05/04 05:51:33;;;;;;;12.82;4.03;;;9.80;61.10;;;;;;9179921;19;20014;-74
2022/05/04 05:54:41;;;;;;;16.02;3.53;;;9.80;61.10;;;;;;9179156;19;20010;-71
2022/05/04 05:57:46;;;;;;;16.67;3.72;;;9.80;61.10;;;;;;9174227;19;20025;-70
2022/05/04 06:00:54;;;;;;;18.60;4.18;;;9.80;61.10;;;;;;9178742;19;20051;-71
2022/05/04 06:04:00;;;;;;;12.00;3.22;;;9.80;61.20;;;;;;9178343;19;20017;-73
2022/05/04 06:07:08;;;;;;;12.57;3.45;;;9.90;61.20;;;;;;9178703;19;20500;-71
2022/05/04 06:10:13;;;;;;;18.20;3.50;;;9.90;61.20;;;;;;9177152;19;20019;-71
2022/05/04 06:13:18;;;;;;;21.73;3.47;;;10.00;61.30;;;;;;9178368;19;20021;-73
2022/05/04 06:16:26;;;;;;;21.15;3.60;;;10.00;61.30;;;;;;9185672;19;20333;-72
2022/05/04 06:19:31;;;;;;;18.35;4.28;;;10.10;61.30;;;;;;9175172;19;21012;-71
2022/05/04 06:22:39;;;;;;;12.02;3.83;;;10.20;61.30;;;;;;9175539;19;20022;-69
2022/05/04 06:25:45;;;;;;;22.48;4.00;;;10.30;61.40;;;;;;9176468;19;20053;-71
2022/05/04 06:28:56;;;;;;;17.38;4.30;;;10.40;61.30;;;;;;9180292;19;20018;-74
2022/05/04 06:35:21;;;;;;;20.25;3.75;;;10.60;61.10;;;;;;9172906;19;20741;-69
2022/05/04 06:38:32;;;;;;;11.48;4.07;;;10.70;61.00;;;;;;9175649;19;20018;-71
2022/05/04 06:41:38;;;;;;;14.98;3.10;;;10.80;60.90;;;;;;9180426;19;20006;-75
2022/05/04 06:44:43;;;;;;;14.88;3.70;;;10.90;60.90;;;;;;9179564;19;20018;-74
2022/05/04 06:47:49;;;;;;;13.68;3.40;;;11.00;60.70;;;;;;9171421;19;20014;-73
2022/05/04 06:50:54;;;;;;;16.35;2.92;;;11.10;60.70;;;;;;9178518;19;20022;-71
2022/05/04 06:54:02;;;;;;;15.35;3.50;;;11.20;60.70;;;;;;9176374;19;20003;-72
2022/05/04 06:57:27;;;;;;;13.50;3.25;;;11.30;60.70;;;;;;9176959;19;20026;-70
2022/05/04 07:00:32;;;;;;;24.35;3.08;;;11.40;60.60;;;;;;9174875;19;20019;-70
2022/05/04 07:03:37;;;;;;;12.75;2.92;;;11.40;60.40;;;;;;9177261;19;20391;-72
2022/05/04 07:06:42;;;;;;;14.63;2.97;;;11.50;60.40;;;;;;9178932;19;20029;-74
2022/05/04 07:09:50;;;;;;;13.18;2.75;;;11.60;60.30;;;;;;9176415;19;20026;-72
2022/05/04 07:12:56;;;;;;;14.65;2.60;;;11.70;60.30;;;;;;9180876;19;20010;-78
2022/05/04 07:16:02;;;;;;;14.07;2.85;;;11.80;60.20;;;;;;9174868;19;20345;-73
2022/05/04 07:19:17;;;;;;;19.60;2.90;;;11.90;60.10;;;;;;9175775;19;20467;-71
2022/05/04 07:22:23;;;;;;;11.93;2.30;;;12.00;60.10;;;;;;9175017;19;20025;-74
2022/05/04 07:25:34;;;;;;;19.30;2.92;;;12.10;60.00;;;;;;9174341;19;20078;-75
2022/05/04 07:28:40;;;;;;;23.52;4.50;;;12.30;60.00;;;;;;9175359;19;20026;-71
2022/05/04 07:31:46;;;;;;;14.85;3.00;;;12.40;59.90;;;;;;9171803;19;20057;-72
2022/05/04 07:34:51;;;;;;;20.20;2.45;;;12.50;59.80;;;;;;9174466;19;20015;-73
2022/05/04 07:37:56;;;;;;;14.10;2.85;;;12.70;59.80;;;;;;9174416;19;20029;-76
2022/05/04 07:44:25;;;;;;;15.82;2.83;;;13.00;59.60;;;;;;9172412;19;20376;-76
2022/05/04 07:47:37;;;;;;;13.15;2.30;;;13.20;59.40;;;;;;9177584;19;20017;-77
2022/05/04 07:50:43;;;;;;;14.55;3.42;;;13.40;59.20;;;;;;9179047;19;20026;-78
2022/05/04 07:53:48;;;;;;;19.30;3.28;;;13.60;59.00;;;;;;9177776;19;20018;-75
2022/05/04 07:56:55;;;;;;;10.13;2.47;;;13.70;58.80;;;;;;9172451;19;20029;-73
2022/05/04 08:06:40;;;;;;;12.63;2.97;;;14.10;58.50;;;;;;9176907;19;20106;-75
2022/05/04 08:09:47;;;;;;;16.90;3.00;;;14.20;58.30;;;;;;9171706;19;20638;-74
2022/05/04 08:12:58;;;;;;;20.38;3.05;;;14.30;58.10;;;;;;9173982;19;20068;-74
2022/05/04 08:16:22;;;;;;;12.52;2.78;;;14.40;58.00;;;;;;9215428;19;20706;-78
2022/05/04 08:19:27;;;;;;;9.05;2.72;;;14.50;57.90;;;;;;9219116;19;20410;-75
2022/05/04 08:22:35;;;;;;;11.75;2.42;;;14.50;57.80;;;;;;9219568;19;20471;-74
2022/05/04 08:25:45;;;;;;;8.63;2.38;;;14.60;57.70;;;;;;9217393;19;20030;-74
2022/05/04 08:28:51;;;;;;;9.43;2.42;;;14.70;57.60;;;;;;9219326;19;20026;-76
2022/05/04 08:31:59;;;;;;;14.52;3.30;;;14.80;57.70;;;;;;9219159;19;20014;-74
2022/05/04 08:35:08;;;;;;;12.30;2.90;;;14.90;57.50;;;;;;9216504;19;20018;-75
2022/05/04 08:38:16;;;;;;;20.67;3.10;;;15.00;57.50;;;;;;9220821;19;20501;-72
2022/05/04 08:41:24;;;;;;;12.32;2.92;;;15.10;57.50;;;;;;9218007;19;20022;-77
2022/05/04 08:44:32;;;;;;;17.13;3.60;;;15.20;57.30;;;;;;9218224;19;20018;-77
2022/05/04 08:47:44;;;;;;;17.50;3.55;;;15.30;57.20;;;;;;9218841;19;20057;-73
2022/05/04 08:51:00;;;;;;;13.10;2.90;;;15.40;57.00;;;;;;9219016;19;20025;-74
2022/05/04 08:54:06;;;;;;;13.05;2.40;;;15.50;57.00;;;;;;9215828;19;20847;-73
2022/05/04 08:57:12;;;;;;;13.73;3.40;;;15.70;57.00;;;;;;9217197;19;20014;-77
2022/05/04 09:00:21;;;;;;;12.68;3.05;;;15.80;57.00;;;;;;9223928;19;20010;-76
2022/05/04 09:03:30;;;;;;;14.45;2.92;;;15.90;56.70;;;;;;9219921;19;20022;-76
2022/05/04 09:06:44;;;;;;;12.65;3.10;;;15.80;56.60;;;;;;9224469;19;20011;-73
2022/05/04 09:09:50;;;;;;;;;;;16.20;56.80;;;;;;9220901;19;20015;-78
2022/05/04 09:12:59;;;;;;;15.43;2.90;;;16.30;57.50;;;;;;9222612;19;19918;-73
2022/05/04 09:16:04;;;;;;;9.20;2.50;;;16.40;57.40;;;;;;9220376;19;20014;-73
2022/05/04 09:19:13;;;;;;;14.80;3.22;;;16.50;57.20;;;;;;9222221;19;20018;-74
2022/05/04 09:22:19;;;;;;;11.98;3.40;;;16.60;57.60;;;;;;9220517;19;20574;-73
2022/05/04 09:25:25;;;;;;;9.98;2.70;;;16.70;57.70;;;;;;9211914;19;20015;-74
2022/05/04 09:28:32;;;;;;;15.45;3.60;;;16.80;57.80;;;;;;9185664;19;20073;-71
2022/05/04 09:31:37;;;;;;;16.55;3.10;;;17.00;58.20;;;;;;9186460;19;20015;-72
2022/05/04 09:34:47;;;;;;;10.27;3.10;;;17.20;59.50;;;;;;9184783;19;20018;-73
2022/05/04 09:47:54;;;;;;;15.50;3.45;;;17.70;60.50;;;;;;9187353;19;20014;-75
2022/05/04 09:51:04;;;;;;;12.95;3.35;;;17.90;60.50;;;;;;9185055;19;20499;-76
2022/05/04 09:54:27;;;;;;;13.25;3.53;;;18.00;60.60;;;;;;9184378;19;20042;-70
2022/05/04 09:57:32;;;;;;;11.05;3.53;;;18.00;60.20;;;;;;9181793;19;20019;-70
2022/05/04 10:00:37;;;;;;;11.50;3.97;;;18.00;60.60;;;;;;9184443;19;20026;-70
2022/05/04 10:03:43;;;;;;;11.20;3.53;;;18.00;60.60;;;;;;9181820;19;20023;-71
2022/05/04 10:06:52;;;;;;;18.17;3.80;;;18.10;61.00;;;;;;9182199;19;20015;-69
2022/05/04 10:09:57;;;;;;;10.18;3.30;;;18.10;60.60;;;;;;9181327;19;20006;-68
2022/05/04 10:13:02;;;;;;;10.05;3.22;;;18.10;60.80;;;;;;9185828;19;20344;-70
2022/05/04 10:16:10;;;;;;;16.70;4.30;;;18.20;60.50;;;;;;9181767;19;20011;-69
2022/05/04 10:19:21;;;;;;;12.15;3.83;;;18.20;60.60;;;;;;9177045;19;20029;-68
2022/05/04 10:22:36;;;;;;;26.65;3.97;;;18.40;60.50;;;;;;9173040;19;20343;-71
2022/05/04 10:25:43;;;;;;;12.35;3.30;;;18.60;60.60;;;;;;9172814;19;20022;-73
2022/05/04 10:30:30;;;;;;;16.75;3.75;;;18.70;61.70;;;;;;9175267;19;20839;-73
2022/05/04 10:32:30;;;;;;;8.50;3.63;;;18.90;62.60;;;;;;9171599;19;20030;-72
2022/05/04 10:35:38;;;;;;;13.60;3.97;;;19.10;61.70;;;;;;9170028;19;20352;-72
2022/05/04 10:38:48;;;;;;;14.20;3.97;;;19.20;58.80;;;;;;9171339;19;20011;-74
2022/05/04 10:41:53;;;;;;;14.68;3.70;;;19.40;58.00;;;;;;9170536;19;20022;-70
2022/05/04 10:44:59;;;;;;;14.18;3.80;;;19.50;58.00;;;;;;9170901;19;20023;-70
2022/05/04 10:48:31;;;;;;;15.65;3.97;;;19.60;57.80;;;;;;9172152;19;20029;-69
2022/05/04 10:51:37;;;;;;;12.82;4.30;;;19.80;57.40;;;;;;9171016;19;20021;-70
2022/05/04 10:54:52;;;;;;;16.27;4.38;;;19.80;57.50;;;;;;9173884;19;20325;-72
2022/05/04 10:57:57;;;;;;;12.55;3.75;;;20.00;57.40;;;;;;9174898;19;20022;-70
2022/05/04 11:01:17;;;;;;;14.07;4.30;;;20.10;57.20;;;;;;9181888;19;20018;-69
2022/05/04 11:04:25;;;;;;;9.95;3.13;;;20.10;57.10;;;;;;9180389;19;20019;-73
2022/05/04 11:07:31;;;;;;;19.85;4.45;;;20.10;57.30;;;;;;9180001;19;20010;-73
2022/05/04 11:10:39;;;;;;;15.43;3.83;;;20.20;57.00;;;;;;9183042;19;20014;-75
2022/05/04 11:13:46;;;;;;;13.35;3.58;;;20.30;56.70;;;;;;9182583;19;20025;-73
2022/05/04 11:16:51;;;;;;;21.27;3.80;;;20.50;56.90;;;;;;9179755;19;20018;-71
2022/05/04 11:19:56;;;;;;;10.52;3.88;;;20.50;57.00;;;;;;9182352;19;20018;-72
2022/05/04 11:23:01;;;;;;;24.67;4.57;;;20.60;57.00;;;;;;9180553;19;20073;-73
2022/05/04 11:26:09;;;;;;;12.98;3.90;;;20.70;56.60;;;;;;9174748;19;20015;-73
2022/05/04 11:29:18;;;;;;;14.90;3.63;;;20.70;56.70;;;;;;9168095;19;20014;-72
2022/05/04 11:32:23;;;;;;;10.18;3.60;;;20.70;57.10;;;;;;9173066;19;20446;-70
2022/05/04 11:35:28;;;;;;;10.57;3.90;;;20.80;56.80;;;;;;9177713;19;20010;-76
2022/05/04 11:38:33;;;;;;;12.27;3.58;;;20.90;56.50;;;;;;9180152;19;20792;-72
2022/05/04 11:41:40;;;;;;;14.43;3.88;;;20.90;56.20;;;;;;9176019;19;20186;-74
2022/05/04 11:44:47;;;;;;;9.18;3.88;;;20.90;57.20;;;;;;9176605;19;20344;-72
2022/05/04 11:47:53;;;;;;;10.35;3.60;;;21.00;57.10;;;;;;9173969;19;20018;-73
2022/05/04 11:50:59;;;;;;;11.88;3.58;;;21.00;57.40;;;;;;9176847;19;20010;-74
2022/05/04 11:54:04;;;;;;;9.98;3.75;;;21.00;56.90;;;;;;9174746;19;20011;-72
2022/05/04 11:57:19;;;;;;;9.68;3.00;;;21.00;56.80;;;;;;9163692;19;20052;-70
2022/05/04 12:00:27;;;;;;;11.50;3.58;;;21.00;56.50;;;;;;9173169;19;20024;-71
2022/05/04 12:03:35;;;;;;;14.38;5.57;;;21.00;56.70;;;;;;9173938;19;20022;-72
2022/05/04 12:06:42;;;;;;;11.02;3.50;;;21.10;57.00;;;;;;9174105;19;20025;-71
2022/05/04 12:09:53;;;;;;;15.38;3.90;;;21.10;57.40;;;;;;9177378;19;20110;-71
2022/05/04 12:13:03;;;;;;;12.93;3.97;;;21.10;57.20;;;;;;9177735;19;20018;-71
2022/05/04 12:16:09;;;;;;;9.75;4.22;;;21.10;56.90;;;;;;9178527;19;20014;-72
2022/05/04 12:19:14;;;;;;;16.15;3.50;;;21.20;57.20;;;;;;9177914;19;20438;-73
2022/05/04 12:22:20;;;;;;;10.32;3.50;;;21.20;57.90;;;;;;9174350;19;20018;-72
2022/05/04 12:25:26;;;;;;;12.32;3.42;;;21.20;58.00;;;;;;9174430;19;20500;-74
2022/05/04 12:28:35;;;;;;;10.27;3.47;;;21.30;58.40;;;;;;9174486;19;20040;-71
2022/05/04 12:34:59;;;;;;;10.25;3.60;;;21.20;58.00;;;;;;9179414;19;20018;-72
2022/05/04 12:38:04;;;;;;;10.38;3.50;;;21.20;58.20;;;;;;9178161;19;20014;-74
2022/05/04 12:41:10;;;;;;;12.70;3.40;;;21.20;58.40;;;;;;9180855;19;20574;-75
2022/05/04 12:44:19;;;;;;;14.23;3.47;;;21.30;57.90;;;;;;9178675;19;20029;-71
2022/05/04 12:47:24;;;;;;;14.95;4.32;;;21.30;58.30;;;;;;9180166;19;20019;-77
2022/05/04 12:50:31;;;;;;;10.60;3.28;;;21.30;58.20;;;;;;9179388;19;20007;-76
2022/05/04 12:53:38;;;;;;;12.48;3.53;;;21.30;58.20;;;;;;9177546;19;20015;-75
2022/05/04 12:56:48;;;;;;;14.45;4.25;;;21.40;58.30;;;;;;9172033;19;20011;-76
2022/05/04 12:59:56;;;;;;;14.32;4.13;;;21.50;57.20;;;;;;9177061;19;20014;-73
2022/05/04 13:03:01;;;;;;;13.15;4.50;;;21.40;57.30;;;;;;9186622;19;20018;-76
2022/05/04 13:06:07;;;;;;;13.70;4.15;;;21.40;56.90;;;;;;9181482;19;20015;-72
2022/05/04 13:09:12;;;;;;;11.70;3.83;;;21.40;57.10;;;;;;9177737;19;20019;-69
2022/05/04 13:12:17;;;;;;;12.88;3.50;;;21.30;57.20;;;;;;9182196;19;20027;-72
2022/05/04 13:15:25;;;;;;;15.70;4.18;;;21.30;57.20;;;;;;9187971;19;20022;-71
2022/05/04 13:18:30;;;;;;;11.18;4.05;;;21.30;57.20;;;;;;9182560;19;20026;-70
2022/05/04 13:21:35;;;;;;;11.00;3.50;;;21.30;57.30;;;;;;9187530;19;20022;-68
2022/05/04 13:24:40;;;;;;;9.38;4.07;;;21.30;57.40;;;;;;9185787;19;20010;-70
2022/05/04 13:27:46;;;;;;;15.00;4.95;;;21.30;57.70;;;;;;9187524;19;20018;-71
2022/05/04 13:30:54;;;;;;;9.20;3.83;;;21.40;56.90;;;;;;9185160;19;20098;-69
2022/05/04 13:33:59;;;;;;;12.65;3.92;;;21.30;56.50;;;;;;9188044;19;20332;-70
2022/05/04 13:37:04;;;;;;;14.98;4.15;;;21.30;56.70;;;;;;9185826;19;20010;-70
2022/05/04 13:40:12;;;;;;;16.98;4.28;;;21.20;56.90;;;;;;9184796;19;20011;-71
2022/05/04 13:43:22;;;;;;;13.13;4.40;;;21.20;60.00;;;;;;9186524;19;20030;-72
2022/05/04 13:46:30;;;;;;;12.63;4.88;;;21.10;55.30;;;;;;9178623;19;20025;-70
2022/05/04 13:49:35;;;;;;;14.02;4.68;;;21.10;55.00;;;;;;9181095;19;20471;-73
2022/05/04 13:55:58;;;;;;;11.30;4.05;;;21.00;54.60;;;;;;9180149;19;20015;-71
2022/05/04 13:59:04;;;;;;;21.17;4.15;;;21.00;55.00;;;;;;9183632;19;20018;-70
2022/05/04 14:02:18;;;;;;;10.65;4.20;;;21.00;55.20;;;;;;9183493;19;20501;-69
2022/05/04 14:05:24;;;;;;;18.50;4.00;;;20.90;55.00;;;;;;9181047;19;20018;-70
2022/05/04 14:08:30;;;;;;;8.88;3.72;;;21.00;54.80;;;;;;9183865;19;20015;-70
2022/05/04 14:11:34;;;;;;;13.52;4.28;;;21.00;54.80;;;;;;9184290;19;20018;-72
2022/05/04 14:18:05;;;;;;;13.60;4.07;;;21.00;54.20;;;;;;9181280;19;20123;-72
2022/05/04 14:21:10;;;;;;;11.30;3.60;;;20.90;54.20;;;;;;9183920;19;20010;-69
2022/05/04 14:24:16;;;;;;;15.82;4.80;;;20.90;54.50;;;;;;9185801;19;20483;-69
2022/05/04 14:27:21;;;;;;;13.52;4.20;;;20.80;54.30;;;;;;9185552;19;20340;-70
2022/05/04 14:30:27;;;;;;;14.85;4.00;;;20.80;54.60;;;;;;9184684;19;20021;-73
2022/05/04 14:33:34;;;;;;;13.90;5.07;;;20.80;54.40;;;;;;9182557;19;20019;-71
2022/05/04 14:36:40;;;;;;;10.73;3.83;;;20.70;54.20;;;;;;9182134;19;20033;-69
2022/05/04 14:39:45;;;;;;;10.68;4.13;;;20.70;54.10;;;;;;9184525;19;20021;-70
2022/05/04 14:42:51;;;;;;;8.10;3.38;;;20.60;54.00;;;;;;9184210;19;20022;-68
2022/05/04 14:45:56;;;;;;;10.63;4.10;;;20.60;54.20;;;;;;9182736;19;20019;-73
2022/05/04 14:49:04;;;;;;;11.63;3.65;;;20.60;54.40;;;;;;9182833;19;20020;-69
2022/05/04 14:52:09;;;;;;;13.25;3.67;;;20.50;54.10;;;;;;9181622;19;20125;-70
2022/05/04 14:55:14;;;;;;;14.60;3.65;;;20.50;54.30;;;;;;9178591;19;20020;-71
2022/05/04 14:58:19;;;;;;;13.00;3.60;;;20.40;53.60;;;;;;9180636;19;20018;-69
2022/05/04 15:01:24;;;;;;;13.52;3.10;;;20.30;53.90;;;;;;9180602;19;20006;-69
2022/05/04 15:07:50;;;;;;;12.18;3.58;;;20.30;53.40;;;;;;9180275;19;20359;-72
2022/05/04 15:10:55;;;;;;;10.00;3.50;;;20.30;53.90;;;;;;9181322;19;20386;-71
2022/05/04 15:14:00;;;;;;;13.05;3.38;;;20.30;54.00;;;;;;9176538;19;20018;-78
2022/05/04 15:17:06;;;;;;;9.55;3.33;;;20.40;53.70;;;;;;9179598;19;20015;-77
2022/05/04 15:20:14;;;;;;;13.02;4.00;;;20.30;54.00;;;;;;9179943;19;20994;-77
2022/05/04 15:23:18;;;;;;;8.90;2.67;;;20.30;53.70;;;;;;9178160;19;20056;-74
2022/05/04 15:26:24;;;;;;;11.93;3.38;;;20.30;53.80;;;;;;9177265;19;20034;-74
2022/05/04 15:29:29;;;;;;;14.18;3.42;;;20.20;53.60;;;;;;9180353;19;20015;-75
2022/05/04 15:32:34;;;;;;;6.20;2.83;;;20.20;53.60;;;;;;9180075;19;20018;-77
2022/05/04 15:35:42;;;;;;;9.00;3.20;;;20.20;54.10;;;;;;9179949;19;20022;-78
2022/05/04 15:38:47;;;;;;;10.90;3.22;;;20.20;53.40;;;;;;9179418;19;20021;-73
2022/05/04 15:41:52;;;;;;;10.50;2.92;;;20.20;53.90;;;;;;9177321;19;20035;-77
2022/05/04 15:45:05;;;;;;;10.73;2.88;;;20.20;53.70;;;;;;9174233;19;20018;-73
2022/05/04 15:48:10;;;;;;;11.45;2.80;;;20.20;53.60;;;;;;9174087;19;20022;-71
2022/05/04 15:51:18;;;;;;;11.63;3.30;;;20.10;53.80;;;;;;9173700;19;20022;-74
2022/05/04 15:54:23;;;;;;;11.50;3.25;;;20.10;53.60;;;;;;9172104;19;20021;-71
2022/05/04 15:57:28;;;;;;;17.58;2.97;;;20.00;53.60;;;;;;9171590;19;20048;-74
2022/05/04 16:00:33;;;;;;;6.18;2.28;;;20.00;53.50;;;;;;9179072;19;20527;-73
2022/05/04 16:06:58;;;;;;;9.68;2.47;;;19.90;53.20;;;;;;9176025;19;20499;-70
2022/05/04 16:10:03;;;;;;;15.57;3.10;;;19.90;53.40;;;;;;9178831;19;20014;-75
2022/05/04 16:13:08;;;;;;;9.30;2.42;;;19.80;53.40;;;;;;9178407;19;20010;-74
2022/05/04 16:16:13;;;;;;;15.30;3.03;;;19.80;53.70;;;;;;9178953;19;20065;-75
2022/05/04 16:22:38;;;;;;;11.05;2.90;;;19.70;53.10;;;;;;9180764;19;20475;-71
2022/05/04 16:25:43;;;;;;;11.95;2.40;;;19.70;53.60;;;;;;9179016;19;20015;-71
2022/05/04 16:28:48;;;;;;;7.60;2.38;;;19.60;53.60;;;;;;9173768;19;20573;-70
2022/05/04 16:31:53;;;;;;;9.77;2.55;;;19.60;53.40;;;;;;9173616;19;20011;-70
2022/05/04 16:34:58;;;;;;;9.02;2.90;;;19.50;53.70;;;;;;9173213;19;20018;-72
2022/05/04 16:38:26;;;;;;;10.52;2.40;;;19.40;53.50;;;;;;9179258;19;20018;-72
2022/05/04 16:41:31;;;;;;;11.45;3.08;;;19.30;53.10;;;;;;9184191;19;20407;-72
2022/05/04 16:44:36;;;;;;;10.52;3.22;;;19.30;53.30;;;;;;9183105;19;20029;-76
2022/05/04 16:47:41;;;;;;;6.82;2.42;;;19.20;53.40;;;;;;9181531;19;20495;-72
2022/05/04 16:50:47;;;;;;;14.80;3.35;;;19.50;53.50;;;;;;9181512;19;20015;-73
2022/05/04 16:53:55;;;;;;;11.23;4.00;;;19.00;53.50;;;;;;9178543;19;20359;-76
2022/05/04 16:57:03;;;;;;;11.93;2.35;;;19.00;53.30;;;;;;9176959;19;20655;-73
2022/05/04 17:00:10;;;;;;;8.48;2.35;;;18.90;53.60;;;;;;9177691;19;20053;-75
2022/05/04 17:03:16;;;;;;;8.82;2.40;;;18.80;53.50;;;;;;9182036;19;20022;-73